sensor_id;sensor_type;location;lat;lon;timestamp;pressure;altitude;pressure_sealevel;temperature;humidity
19884;BME280;10104;50.732;10.174;2023-05-24T00:01:48;98314.63;;;11.65;78.21
19884;BME280;10104;50.732;10.174;2023-05-24T00:04:09;98306.50;;;11.66;78.15
19884;BME280;10104;50.732;10.174;2023-05-24T00:06:33;98313.41;;;11.67;78.06
19884;BME280;10104;50.732;10.174;2023-05-24T00:08:57;98312.06;;;11.71;78.30
19884;BME280;10104;50.732;10.174;2023-05-24T00:11:19;98308.69;;;11.63;78.55
19884;BME280;10104;50.732;10.174;2023-05-24T00:13:41;98313.16;;;11.62;78.41
19884;BME280;10104;50.732;10.174;2023-05-24T00:16:02;98314.06;;;11.69;78.40
19884;BME280;10104;50.732;10.174;2023-05-24T00:18:24;98314.25;;;11.68;78.62
19884;BME280;10104;50.732;10.174;2023-05-24T00:20:46;98316.72;;;11.69;78.92
19884;BME280;10104;50.732;10.174;2023-05-24T00:23:08;98318.19;;;11.72;78.58
19884;BME280;10104;50.732;10.174;2023-05-24T00:25:30;98316.53;;;11.71;79.00
19884;BME280;10104;50.732;10.174;2023-05-24T00:27:51;98316.72;;;11.69;80.07
19884;BME280;10104;50.732;10.174;2023-05-24T00:30:13;98319.84;;;11.58;81.36
19884;BME280;10104;50.732;10.174;2023-05-24T00:32:34;98315.38;;;11.73;80.36
19884;BME280;10104;50.732;10.174;2023-05-24T00:34:56;98314.38;;;11.74;80.39
19884;BME280;10104;50.732;10.174;2023-05-24T00:37:17;98314.72;;;11.71;80.41
19884;BME280;10104;50.732;10.174;2023-05-24T00:39:39;98320.38;;;11.68;80.02
19884;BME280;10104;50.732;10.174;2023-05-24T00:42:01;98320.84;;;11.72;79.85
19884;BME280;10104;50.732;10.174;2023-05-24T00:44:23;98319.19;;;11.71;80.11
19884;BME280;10104;50.732;10.174;2023-05-24T00:46:44;98320.84;;;11.72;79.48
19884;BME280;10104;50.732;10.174;2023-05-24T00:49:07;98317.72;;;11.68;79.29
19884;BME280;10104;50.732;10.174;2023-05-24T00:51:29;98319.66;;;11.74;78.84
19884;BME280;10104;50.732;10.174;2023-05-24T00:53:53;98325.78;;;11.60;79.58
19884;BME280;10104;50.732;10.174;2023-05-24T00:56:16;98318.63;;;11.61;80.17
19884;BME280;10104;50.732;10.174;2023-05-24T00:58:37;98320.84;;;11.57;80.76
19884;BME280;10104;50.732;10.174;2023-05-24T01:01:00;98324.53;;;11.42;79.48
19884;BME280;10104;50.732;10.174;2023-05-24T01:03:22;98322.50;;;11.29;79.94
19884;BME280;10104;50.732;10.174;2023-05-24T01:05:44;98320.66;;;11.29;80.71
19884;BME280;10104;50.732;10.174;2023-05-24T01:08:14;98321.75;;;11.20;80.20
19884;BME280;10104;50.732;10.174;2023-05-24T01:11:03;98321.09;;;11.04;80.67
19884;BME280;10104;50.732;10.174;2023-05-24T01:13:32;98321.44;;;10.86;81.75
19884;BME280;10104;50.732;10.174;2023-05-24T01:16:09;98318.94;;;10.84;81.34
19884;BME280;10104;50.732;10.174;2023-05-24T01:18:34;98320.59;;;10.85;81.61
19884;BME280;10104;50.732;10.174;2023-05-24T01:21:25;98326.19;;;10.90;80.38
19884;BME280;10104;50.732;10.174;2023-05-24T01:24:24;98321.84;;;10.75;79.25
19884;BME280;10104;50.732;10.174;2023-05-24T01:27:04;98325.41;;;10.82;79.50
19884;BME280;10104;50.732;10.174;2023-05-24T01:29:28;98321.72;;;10.68;77.39
19884;BME280;10104;50.732;10.174;2023-05-24T01:31:51;98321.84;;;10.75;77.86
19884;BME280;10104;50.732;10.174;2023-05-24T01:34:13;98323.44;;;10.84;78.52
19884;BME280;10104;50.732;10.174;2023-05-24T01:36:35;98323.38;;;10.69;78.01
19884;BME280;10104;50.732;10.174;2023-05-24T01:38:56;98318.34;;;10.74;79.49
19884;BME280;10104;50.732;10.174;2023-05-24T01:41:22;98324.25;;;10.62;79.35
19884;BME280;10104;50.732;10.174;2023-05-24T01:43:55;98316.31;;;10.62;79.75
19884;BME280;10104;50.732;10.174;2023-05-24T01:46:34;98314.72;;;10.75;80.32
19884;BME280;10104;50.732;10.174;2023-05-24T01:49:15;98311.00;;;10.62;78.83
19884;BME280;10104;50.732;10.174;2023-05-24T01:51:50;98308.63;;;10.52;78.58
19884;BME280;10104;50.732;10.174;2023-05-24T01:54:14;98311.28;;;10.29;78.23
19884;BME280;10104;50.732;10.174;2023-05-24T01:56:40;98308.38;;;10.39;78.50
19884;BME280;10104;50.732;10.174;2023-05-24T01:59:02;98306.03;;;10.44;78.12
19884;BME280;10104;50.732;10.174;2023-05-24T02:01:25;98308.34;;;10.47;78.30
19884;BME280;10104;50.732;10.174;2023-05-24T02:03:47;98314.63;;;10.46;77.62
19884;BME280;10104;50.732;10.174;2023-05-24T02:06:09;98310.31;;;10.45;78.60
19884;BME280;10104;50.732;10.174;2023-05-24T02:08:31;98313.13;;;10.43;77.15
19884;BME280;10104;50.732;10.174;2023-05-24T02:10:52;98322.44;;;10.39;76.38
19884;BME280;10104;50.732;10.174;2023-05-24T02:13:14;98314.31;;;10.64;75.39
19884;BME280;10104;50.732;10.174;2023-05-24T02:15:38;98314.09;;;10.50;75.30
19884;BME280;10104;50.732;10.174;2023-05-24T02:18:02;98314.50;;;10.39;76.82
19884;BME280;10104;50.732;10.174;2023-05-24T02:20:24;98311.16;;;10.23;79.00
19884;BME280;10104;50.732;10.174;2023-05-24T02:22:47;98312.16;;;10.22;79.39
19884;BME280;10104;50.732;10.174;2023-05-24T02:25:09;98306.50;;;10.25;78.83
19884;BME280;10104;50.732;10.174;2023-05-24T02:27:31;98313.44;;;10.26;79.06
19884;BME280;10104;50.732;10.174;2023-05-24T02:29:52;98313.97;;;10.21;79.58
19884;BME280;10104;50.732;10.174;2023-05-24T02:32:14;98310.28;;;10.30;78.90
19884;BME280;10104;50.732;10.174;2023-05-24T02:34:35;98314.50;;;10.17;80.10
19884;BME280;10104;50.732;10.174;2023-05-24T02:36:57;98313.34;;;10.11;80.81
19884;BME280;10104;50.732;10.174;2023-05-24T02:39:19;98314.88;;;10.05;80.84
19884;BME280;10104;50.732;10.174;2023-05-24T02:41:40;98308.56;;;10.06;80.52
19884;BME280;10104;50.732;10.174;2023-05-24T02:44:02;98302.22;;;9.93;80.91
19884;BME280;10104;50.732;10.174;2023-05-24T02:46:23;98302.41;;;9.83;79.53
19884;BME280;10104;50.732;10.174;2023-05-24T02:48:45;98302.94;;;9.79;78.57
19884;BME280;10104;50.732;10.174;2023-05-24T02:51:06;98304.63;;;9.71;79.13
19884;BME280;10104;50.732;10.174;2023-05-24T02:53:31;98303.31;;;9.67;79.34
19884;BME280;10104;50.732;10.174;2023-05-24T02:55:53;98306.09;;;9.74;79.62
19884;BME280;10104;50.732;10.174;2023-05-24T02:58:15;98309.19;;;9.86;79.99
19884;BME280;10104;50.732;10.174;2023-05-24T03:00:37;98304.03;;;9.92;80.31
19884;BME280;10104;50.732;10.174;2023-05-24T03:02:59;98303.47;;;9.74;80.45
19884;BME280;10104;50.732;10.174;2023-05-24T03:05:23;98305.56;;;9.87;80.06
19884;BME280;10104;50.732;10.174;2023-05-24T03:07:45;98296.72;;;9.94;79.63
19884;BME280;10104;50.732;10.174;2023-05-24T03:10:07;98299.94;;;9.82;79.39
19884;BME280;10104;50.732;10.174;2023-05-24T03:12:28;98304.44;;;9.81;79.54
19884;BME280;10104;50.732;10.174;2023-05-24T03:14:50;98293.25;;;9.94;78.39
19884;BME280;10104;50.732;10.174;2023-05-24T03:17:11;98303.50;;;9.97;78.38
19884;BME280;10104;50.732;10.174;2023-05-24T03:19:33;98304.97;;;9.99;78.35
19884;BME280;10104;50.732;10.174;2023-05-24T03:21:54;98304.31;;;9.97;76.39
19884;BME280;10104;50.732;10.174;2023-05-24T03:24:16;98303.03;;;9.93;76.15
19884;BME280;10104;50.732;10.174;2023-05-24T03:26:39;98305.06;;;9.83;77.00
19884;BME280;10104;50.732;10.174;2023-05-24T03:29:00;98313.25;;;9.96;76.81
19884;BME280;10104;50.732;10.174;2023-05-24T03:31:22;98304.09;;;10.07;74.83
19884;BME280;10104;50.732;10.174;2023-05-24T03:33:46;98310.63;;;9.88;75.62
19884;BME280;10104;50.732;10.174;2023-05-24T03:36:08;98309.38;;;9.76;75.02
19884;BME280;10104;50.732;10.174;2023-05-24T03:38:29;98304.72;;;9.86;74.99
19884;BME280;10104;50.732;10.174;2023-05-24T03:40:52;98308.69;;;9.82;75.83
19884;BME280;10104;50.732;10.174;2023-05-24T03:43:13;98313.25;;;9.96;75.36
19884;BME280;10104;50.732;10.174;2023-05-24T03:45:35;98316.06;;;9.95;75.04
19884;BME280;10104;50.732;10.174;2023-05-24T03:48:00;98316.06;;;9.95;74.95
19884;BME280;10104;50.732;10.174;2023-05-24T03:50:22;98317.97;;;10.09;74.81
19884;BME280;10104;50.732;10.174;2023-05-24T03:52:43;98315.47;;;10.15;74.85
19884;BME280;10104;50.732;10.174;2023-05-24T03:55:05;98310.28;;;10.30;74.38
19884;BME280;10104;50.732;10.174;2023-05-24T03:57:26;98310.09;;;10.32;74.42
19884;BME280;10104;50.732;10.174;2023-05-24T03:59:48;98307.56;;;10.38;74.15
19884;BME280;10104;50.732;10.174;2023-05-24T04:02:09;98311.16;;;10.45;74.18
19884;BME280;10104;50.732;10.174;2023-05-24T04:04:31;98306.84;;;10.44;74.57
19884;BME280;10104;50.732;10.174;2023-05-24T04:06:53;98319.09;;;10.45;75.13
19884;BME280;10104;50.732;10.174;2023-05-24T04:09:14;98315.28;;;10.48;75.34
19884;BME280;10104;50.732;10.174;2023-05-24T04:11:36;98318.97;;;10.39;76.19
19884;BME280;10104;50.732;10.174;2023-05-24T04:13:58;98317.19;;;10.31;76.83
19884;BME280;10104;50.732;10.174;2023-05-24T04:16:22;98324.31;;;10.31;77.19
19884;BME280;10104;50.732;10.174;2023-05-24T04:18:45;98329.16;;;10.27;76.31
19884;BME280;10104;50.732;10.174;2023-05-24T04:21:06;98328.19;;;10.20;77.02
19884;BME280;10104;50.732;10.174;2023-05-24T04:23:28;98332.34;;;10.14;78.26
19884;BME280;10104;50.732;10.174;2023-05-24T04:25:49;98335.78;;;10.23;73.73
19884;BME280;10104;50.732;10.174;2023-05-24T04:28:11;98327.66;;;10.25;75.06
19884;BME280;10104;50.732;10.174;2023-05-24T04:30:32;98332.75;;;10.34;74.29
19884;BME280;10104;50.732;10.174;2023-05-24T04:32:55;98326.34;;;10.29;75.21
19884;BME280;10104;50.732;10.174;2023-05-24T04:35:17;98331.19;;;10.17;74.91
19884;BME280;10104;50.732;10.174;2023-05-24T04:37:38;98337.78;;;10.21;74.90
19884;BME280;10104;50.732;10.174;2023-05-24T04:40:01;98336.28;;;10.19;76.18
19884;BME280;10104;50.732;10.174;2023-05-24T04:42:26;98343.44;;;10.10;75.21
19884;BME280;10104;50.732;10.174;2023-05-24T04:44:52;98335.06;;;9.98;75.10
19884;BME280;10104;50.732;10.174;2023-05-24T04:47:14;98339.69;;;10.04;75.22
19884;BME280;10104;50.732;10.174;2023-05-24T04:49:36;98348.34;;;9.90;76.66
19884;BME280;10104;50.732;10.174;2023-05-24T04:51:58;98341.00;;;10.00;73.95
19884;BME280;10104;50.732;10.174;2023-05-24T04:54:19;98351.44;;;9.94;75.13
19884;BME280;10104;50.732;10.174;2023-05-24T04:56:41;98357.94;;;9.83;74.43
19884;BME280;10104;50.732;10.174;2023-05-24T04:59:03;98342.06;;;9.83;75.26
19884;BME280;10104;50.732;10.174;2023-05-24T05:01:26;98345.84;;;9.89;76.29
19884;BME280;10104;50.732;10.174;2023-05-24T05:03:47;98353.22;;;10.01;76.36
19884;BME280;10104;50.732;10.174;2023-05-24T05:06:09;98355.91;;;10.32;74.36
19884;BME280;10104;50.732;10.174;2023-05-24T05:08:30;98355.69;;;10.42;73.08
19884;BME280;10104;50.732;10.174;2023-05-24T05:10:52;98355.75;;;10.34;73.87
19884;BME280;10104;50.732;10.174;2023-05-24T05:13:13;98356.56;;;10.34;72.84
19884;BME280;10104;50.732;10.174;2023-05-24T05:15:35;98367.56;;;10.46;71.75
19884;BME280;10104;50.732;10.174;2023-05-24T05:17:56;98367.41;;;10.47;71.62
19884;BME280;10104;50.732;10.174;2023-05-24T05:20:18;98364.75;;;10.47;71.96
19884;BME280;10104;50.732;10.174;2023-05-24T05:22:47;98367.94;;;10.43;72.15
19884;BME280;10104;50.732;10.174;2023-05-24T05:25:08;98365.34;;;10.35;71.63
19884;BME280;10104;50.732;10.174;2023-05-24T05:27:30;98374.84;;;10.44;72.77
19884;BME280;10104;50.732;10.174;2023-05-24T05:29:51;98371.38;;;10.43;71.48
19884;BME280;10104;50.732;10.174;2023-05-24T05:32:13;98366.22;;;10.50;72.42
19884;BME280;10104;50.732;10.174;2023-05-24T05:34:35;98367.88;;;10.74;71.50
19884;BME280;10104;50.732;10.174;2023-05-24T05:36:56;98374.47;;;10.78;70.41
19884;BME280;10104;50.732;10.174;2023-05-24T05:39:18;98368.81;;;10.81;67.83
19884;BME280;10104;50.732;10.174;2023-05-24T05:41:39;98373.22;;;10.88;70.02
19884;BME280;10104;50.732;10.174;2023-05-24T05:44:06;98369.13;;;10.86;69.12
19884;BME280;10104;50.732;10.174;2023-05-24T05:46:28;98357.25;;;10.97;68.61
19884;BME280;10104;50.732;10.174;2023-05-24T05:48:50;98362.41;;;11.13;68.44
19884;BME280;10104;50.732;10.174;2023-05-24T05:51:11;98359.31;;;11.24;68.28
19884;BME280;10104;50.732;10.174;2023-05-24T05:53:33;98364.38;;;11.33;67.38
19884;BME280;10104;50.732;10.174;2023-05-24T05:55:54;98366.53;;;11.30;66.50
19884;BME280;10104;50.732;10.174;2023-05-24T05:58:16;98371.06;;;11.44;66.05
19884;BME280;10104;50.732;10.174;2023-05-24T06:00:39;98367.22;;;11.47;64.47
19884;BME280;10104;50.732;10.174;2023-05-24T06:03:00;98365.03;;;11.50;65.27
19884;BME280;10104;50.732;10.174;2023-05-24T06:05:22;98365.50;;;11.54;65.64
19884;BME280;10104;50.732;10.174;2023-05-24T06:07:44;98380.03;;;11.58;65.68
19884;BME280;10104;50.732;10.174;2023-05-24T06:10:06;98377.28;;;11.66;63.57
19884;BME280;10104;50.732;10.174;2023-05-24T06:12:27;98383.22;;;11.68;64.47
19884;BME280;10104;50.732;10.174;2023-05-24T06:14:49;98374.22;;;11.77;65.95
19884;BME280;10104;50.732;10.174;2023-05-24T06:17:10;98372.91;;;11.88;65.37
19884;BME280;10104;50.732;10.174;2023-05-24T06:19:32;98379.50;;;11.92;63.75
19884;BME280;10104;50.732;10.174;2023-05-24T06:21:54;98381.69;;;12.03;62.55
19884;BME280;10104;50.732;10.174;2023-05-24T06:24:17;98387.78;;;12.18;61.74
19884;BME280;10104;50.732;10.174;2023-05-24T06:26:41;98394.38;;;12.22;62.25
19884;BME280;10104;50.732;10.174;2023-05-24T06:29:03;98389.00;;;12.15;60.67
19884;BME280;10104;50.732;10.174;2023-05-24T06:31:24;98395.50;;;12.13;61.31
19884;BME280;10104;50.732;10.174;2023-05-24T06:33:46;98389.53;;;12.11;61.32
19884;BME280;10104;50.732;10.174;2023-05-24T06:36:23;98394.41;;;11.93;61.98
19884;BME280;10104;50.732;10.174;2023-05-24T06:38:45;98398.63;;;11.87;63.37
19884;BME280;10104;50.732;10.174;2023-05-24T06:41:06;98404.22;;;11.78;62.37
19884;BME280;10104;50.732;10.174;2023-05-24T06:43:29;98402.78;;;11.67;63.50
19884;BME280;10104;50.732;10.174;2023-05-24T06:45:50;98411.03;;;11.57;63.39
19884;BME280;10104;50.732;10.174;2023-05-24T06:48:12;98414.19;;;11.75;61.89
19884;BME280;10104;50.732;10.174;2023-05-24T06:50:34;98412.44;;;11.83;62.02
19884;BME280;10104;50.732;10.174;2023-05-24T06:52:56;98404.97;;;12.22;60.23
19884;BME280;10104;50.732;10.174;2023-05-24T06:55:18;98409.25;;;12.52;60.72
19884;BME280;10104;50.732;10.174;2023-05-24T06:57:40;98402.00;;;12.82;58.57
19884;BME280;10104;50.732;10.174;2023-05-24T07:00:02;98407.19;;;12.69;56.44
19884;BME280;10104;50.732;10.174;2023-05-24T07:02:25;98412.84;;;12.45;57.16
19884;BME280;10104;50.732;10.174;2023-05-24T07:04:48;98408.47;;;12.23;58.27
19884;BME280;10104;50.732;10.174;2023-05-24T07:07:10;98414.59;;;12.38;59.09
19884;BME280;10104;50.732;10.174;2023-05-24T07:09:33;98413.59;;;12.24;59.04
19884;BME280;10104;50.732;10.174;2023-05-24T07:11:54;98419.72;;;12.39;59.26
19884;BME280;10104;50.732;10.174;2023-05-24T07:14:16;98415.91;;;12.27;59.95
19884;BME280;10104;50.732;10.174;2023-05-24T07:16:37;98416.91;;;12.26;59.91
19884;BME280;10104;50.732;10.174;2023-05-24T07:18:59;98419.72;;;12.25;59.89
19884;BME280;10104;50.732;10.174;2023-05-24T07:21:24;98421.25;;;12.48;61.14
19884;BME280;10104;50.732;10.174;2023-05-24T07:23:46;98423.91;;;12.48;58.65
19884;BME280;10104;50.732;10.174;2023-05-24T07:26:07;98425.38;;;12.51;61.72
19884;BME280;10104;50.732;10.174;2023-05-24T07:28:29;98425.59;;;12.71;60.98
19884;BME280;10104;50.732;10.174;2023-05-24T07:30:51;98428.50;;;12.76;59.99
19884;BME280;10104;50.732;10.174;2023-05-24T07:33:13;98425.97;;;12.53;59.39
19884;BME280;10104;50.732;10.174;2023-05-24T07:35:34;98427.38;;;12.49;60.20
19884;BME280;10104;50.732;10.174;2023-05-24T07:37:56;98429.31;;;12.76;61.03
19884;BME280;10104;50.732;10.174;2023-05-24T07:40:17;98421.47;;;13.11;59.56
19884;BME280;10104;50.732;10.174;2023-05-24T07:42:40;98425.28;;;13.23;57.98
19884;BME280;10104;50.732;10.174;2023-05-24T07:45:01;98429.66;;;13.58;57.55
19884;BME280;10104;50.732;10.174;2023-05-24T07:47:23;98421.31;;;13.61;55.91
19884;BME280;10104;50.732;10.174;2023-05-24T07:49:44;98418.19;;;13.58;55.93
19884;BME280;10104;50.732;10.174;2023-05-24T07:52:06;98422.53;;;13.65;54.31
19884;BME280;10104;50.732;10.174;2023-05-24T07:54:28;98418.19;;;13.58;55.09
19884;BME280;10104;50.732;10.174;2023-05-24T07:56:49;98421.03;;;13.50;55.42
19884;BME280;10104;50.732;10.174;2023-05-24T07:59:10;98413.56;;;13.39;54.56
19884;BME280;10104;50.732;10.174;2023-05-24T08:01:35;98414.16;;;13.62;54.84
19884;BME280;10104;50.732;10.174;2023-05-24T08:03:57;98411.13;;;13.71;54.24
19884;BME280;10104;50.732;10.174;2023-05-24T08:06:18;98415.72;;;13.84;55.78
19884;BME280;10104;50.732;10.174;2023-05-24T08:08:40;98410.66;;;13.96;54.47
19884;BME280;10104;50.732;10.174;2023-05-24T08:11:01;98401.47;;;13.98;53.20
19884;BME280;10104;50.732;10.174;2023-05-24T08:13:23;98404.75;;;13.66;53.32
19884;BME280;10104;50.732;10.174;2023-05-24T08:15:44;98402.94;;;14.07;54.08
19884;BME280;10104;50.732;10.174;2023-05-24T08:18:06;98409.25;;;14.41;53.87
19884;BME280;10104;50.732;10.174;2023-05-24T08:20:28;98410.72;;;14.43;52.10
19884;BME280;10104;50.732;10.174;2023-05-24T08:22:49;98411.41;;;14.72;51.95
19884;BME280;10104;50.732;10.174;2023-05-24T08:25:11;98415.47;;;14.54;51.29
19884;BME280;10104;50.732;10.174;2023-05-24T08:27:32;98413.03;;;14.66;51.10
19884;BME280;10104;50.732;10.174;2023-05-24T08:29:54;98415.31;;;14.82;50.39
19884;BME280;10104;50.732;10.174;2023-05-24T08:32:17;98413.31;;;14.97;50.77
19884;BME280;10104;50.732;10.174;2023-05-24T08:34:38;98415.53;;;15.01;50.24
19884;BME280;10104;50.732;10.174;2023-05-24T08:37:00;98404.69;;;15.02;48.76
19884;BME280;10104;50.732;10.174;2023-05-24T08:39:22;98414.13;;;15.44;48.55
19884;BME280;10104;50.732;10.174;2023-05-24T08:41:45;98411.28;;;15.72;48.80
19884;BME280;10104;50.732;10.174;2023-05-24T08:44:27;98401.97;;;16.01;48.66
19884;BME280;10104;50.732;10.174;2023-05-24T08:46:52;98408.00;;;16.41;48.81
19884;BME280;10104;50.732;10.174;2023-05-24T08:49:14;98410.69;;;16.79;45.90
19884;BME280;10104;50.732;10.174;2023-05-24T08:51:37;98410.09;;;16.77;46.28
19884;BME280;10104;50.732;10.174;2023-05-24T08:54:00;98415.53;;;16.50;47.49
19884;BME280;10104;50.732;10.174;2023-05-24T08:56:21;98418.00;;;16.65;46.28
19884;BME280;10104;50.732;10.174;2023-05-24T08:58:43;98424.34;;;16.71;45.79
19884;BME280;10104;50.732;10.174;2023-05-24T09:01:10;98425.25;;;16.45;45.96
19884;BME280;10104;50.732;10.174;2023-05-24T09:03:32;98422.47;;;16.20;46.16
19884;BME280;10104;50.732;10.174;2023-05-24T09:05:55;98421.63;;;16.77;46.66
19884;BME280;10104;50.732;10.174;2023-05-24T09:08:17;98427.88;;;16.51;45.71
19884;BME280;10104;50.732;10.174;2023-05-24T09:10:40;98419.78;;;16.78;45.69
19884;BME280;10104;50.732;10.174;2023-05-24T09:13:16;98422.66;;;16.76;45.78
19884;BME280;10104;50.732;10.174;2023-05-24T09:15:38;98421.88;;;16.69;44.55
19884;BME280;10104;50.732;10.174;2023-05-24T09:18:00;98426.81;;;16.72;45.81
19884;BME280;10104;50.732;10.174;2023-05-24T09:20:21;98423.31;;;16.72;44.43
19884;BME280;10104;50.732;10.174;2023-05-24T09:22:44;98420.41;;;16.15;44.40
19884;BME280;10104;50.732;10.174;2023-05-24T09:25:11;98433.41;;;15.99;45.67
19884;BME280;10104;50.732;10.174;2023-05-24T09:27:34;98421.53;;;15.82;44.96
19884;BME280;10104;50.732;10.174;2023-05-24T09:29:55;98421.44;;;16.14;45.09
19884;BME280;10104;50.732;10.174;2023-05-24T09:32:18;98410.41;;;16.49;44.99
19884;BME280;10104;50.732;10.174;2023-05-24T09:34:43;98407.91;;;16.61;44.56
19884;BME280;10104;50.732;10.174;2023-05-24T09:37:12;98409.34;;;16.56;44.90
19884;BME280;10104;50.732;10.174;2023-05-24T09:39:36;98414.38;;;16.40;44.03
19884;BME280;10104;50.732;10.174;2023-05-24T09:41:59;98410.63;;;16.54;45.53
19884;BME280;10104;50.732;10.174;2023-05-24T09:44:23;98419.97;;;16.25;45.39
19884;BME280;10104;50.732;10.174;2023-05-24T09:46:45;98419.63;;;16.02;45.46
19884;BME280;10104;50.732;10.174;2023-05-24T09:49:07;98415.41;;;15.61;46.19
19884;BME280;10104;50.732;10.174;2023-05-24T09:51:29;98404.50;;;15.69;46.33
19884;BME280;10104;50.732;10.174;2023-05-24T09:53:55;98400.91;;;16.08;45.56
19884;BME280;10104;50.732;10.174;2023-05-24T09:56:17;98411.84;;;16.51;45.74
19884;BME280;10104;50.732;10.174;2023-05-24T09:58:39;98406.16;;;17.11;43.61
19884;BME280;10104;50.732;10.174;2023-05-24T10:01:07;98405.03;;;17.74;42.52
19884;BME280;10104;50.732;10.174;2023-05-24T10:03:29;98400.22;;;18.19;41.72
19884;BME280;10104;50.732;10.174;2023-05-24T10:05:50;98399.69;;;18.29;41.07
19884;BME280;10104;50.732;10.174;2023-05-24T10:08:14;98409.25;;;18.07;40.38
19884;BME280;10104;50.732;10.174;2023-05-24T10:10:36;98407.25;;;17.77;41.08
19884;BME280;10104;50.732;10.174;2023-05-24T10:12:58;98416.31;;;17.33;40.68
19884;BME280;10104;50.732;10.174;2023-05-24T10:15:20;98409.84;;;17.66;41.35
19884;BME280;10104;50.732;10.174;2023-05-24T10:17:42;98407.56;;;17.69;41.32
19884;BME280;10104;50.732;10.174;2023-05-24T10:20:04;98405.06;;;18.11;42.20
19884;BME280;10104;50.732;10.174;2023-05-24T10:22:27;98406.69;;;18.67;41.42
19884;BME280;10104;50.732;10.174;2023-05-24T10:24:52;98404.38;;;19.12;39.88
19884;BME280;10104;50.732;10.174;2023-05-24T10:27:22;98410.22;;;19.32;39.27
19884;BME280;10104;50.732;10.174;2023-05-24T10:29:58;98410.31;;;19.14;38.57
19884;BME280;10104;50.732;10.174;2023-05-24T10:32:22;98403.25;;;19.31;39.10
19884;BME280;10104;50.732;10.174;2023-05-24T10:34:46;98401.78;;;19.47;39.82
19884;BME280;10104;50.732;10.174;2023-05-24T10:37:08;98396.84;;;19.44;39.40
19884;BME280;10104;50.732;10.174;2023-05-24T10:39:31;98390.34;;;19.86;39.25
19884;BME280;10104;50.732;10.174;2023-05-24T10:41:56;98399.78;;;20.12;39.48
19884;BME280;10104;50.732;10.174;2023-05-24T10:44:18;98393.25;;;19.73;38.35
19884;BME280;10104;50.732;10.174;2023-05-24T10:47:13;98397.94;;;19.66;38.15
19884;BME280;10104;50.732;10.174;2023-05-24T10:49:37;98397.09;;;19.65;38.61
19884;BME280;10104;50.732;10.174;2023-05-24T10:52:01;98390.38;;;20.38;37.56
19884;BME280;10104;50.732;10.174;2023-05-24T10:54:24;98393.53;;;20.23;37.74
19884;BME280;10104;50.732;10.174;2023-05-24T10:56:49;98399.06;;;20.05;38.14
19884;BME280;10104;50.732;10.174;2023-05-24T10:59:22;98398.94;;;20.00;37.60
19884;BME280;10104;50.732;10.174;2023-05-24T11:01:44;98391.59;;;19.84;37.72
19884;BME280;10104;50.732;10.174;2023-05-24T11:06:48;98395.84;;;19.79;38.14
19884;BME280;10104;50.732;10.174;2023-05-24T11:09:10;98395.84;;;19.56;38.10
19884;BME280;10104;50.732;10.174;2023-05-24T11:11:31;98393.72;;;19.70;38.20
19884;BME280;10104;50.732;10.174;2023-05-24T11:13:56;98392.84;;;19.34;38.86
19884;BME280;10104;50.732;10.174;2023-05-24T11:16:35;98404.28;;;19.30;38.97
19884;BME280;10104;50.732;10.174;2023-05-24T11:19:10;98395.06;;;18.84;39.16
19884;BME280;10104;50.732;10.174;2023-05-24T11:21:32;98397.28;;;18.39;39.49
19884;BME280;10104;50.732;10.174;2023-05-24T11:23:54;98403.56;;;18.33;40.38
19884;BME280;10104;50.732;10.174;2023-05-24T11:26:15;98400.50;;;18.30;40.66
19884;BME280;10104;50.732;10.174;2023-05-24T11:28:38;98405.53;;;18.08;40.30
19884;BME280;10104;50.732;10.174;2023-05-24T11:31:06;98411.47;;;18.10;40.69
19884;BME280;10104;50.732;10.174;2023-05-24T11:33:28;98405.13;;;17.86;41.13
19884;BME280;10104;50.732;10.174;2023-05-24T11:35:51;98400.84;;;17.60;40.46
19884;BME280;10104;50.732;10.174;2023-05-24T11:38:14;98407.19;;;17.59;40.31
19884;BME280;10104;50.732;10.174;2023-05-24T11:40:36;98399.97;;;17.66;40.49
19884;BME280;10104;50.732;10.174;2023-05-24T11:42:59;98400.81;;;18.03;40.42
19884;BME280;10104;50.732;10.174;2023-05-24T11:45:21;98395.22;;;18.23;41.26
19884;BME280;10104;50.732;10.174;2023-05-24T11:47:42;98392.09;;;18.44;39.93
19884;BME280;10104;50.732;10.174;2023-05-24T11:50:05;98394.25;;;18.17;40.17
19884;BME280;10104;50.732;10.174;2023-05-24T11:52:27;98395.56;;;17.72;39.26
19884;BME280;10104;50.732;10.174;2023-05-24T11:54:48;98385.69;;;18.27;40.20
19884;BME280;10104;50.732;10.174;2023-05-24T11:57:11;98398.38;;;17.84;41.41
19884;BME280;10104;50.732;10.174;2023-05-24T11:59:33;98395.03;;;18.06;41.10
19884;BME280;10104;50.732;10.174;2023-05-24T12:02:03;98382.78;;;18.29;40.25
19884;BME280;10104;50.732;10.174;2023-05-24T12:04:27;98390.25;;;18.75;39.37
19884;BME280;10104;50.732;10.174;2023-05-24T12:06:49;98389.25;;;18.87;38.54
19884;BME280;10104;50.732;10.174;2023-05-24T12:09:11;98388.50;;;19.10;37.87
19884;BME280;10104;50.732;10.174;2023-05-24T12:11:40;98385.78;;;19.63;37.60
19884;BME280;10104;50.732;10.174;2023-05-24T12:14:03;98383.59;;;20.24;37.71
19884;BME280;10104;50.732;10.174;2023-05-24T12:16:26;98388.44;;;20.10;36.89
19884;BME280;10104;50.732;10.174;2023-05-24T12:18:50;98385.34;;;20.41;38.11
19884;BME280;10104;50.732;10.174;2023-05-24T12:21:29;98384.81;;;20.84;36.60
19884;BME280;10104;50.732;10.174;2023-05-24T12:23:50;98385.78;;;21.23;34.75
19884;BME280;10104;50.732;10.174;2023-05-24T12:26:12;98375.69;;;21.86;34.96
19884;BME280;10104;50.732;10.174;2023-05-24T12:28:36;98381.66;;;22.26;35.24
19884;BME280;10104;50.732;10.174;2023-05-24T12:30:59;98388.94;;;22.26;34.03
19884;BME280;10104;50.732;10.174;2023-05-24T12:33:22;98388.31;;;21.63;33.75